createdAt,value
2022-11-19T00:01:06.606Z,97170.88
2022-11-19T00:03:35.141Z,97171.06
2022-11-19T00:06:22.404Z,97164.59
2022-11-19T00:08:49.435Z,97168.47
2022-11-19T00:11:41.225Z,97168.13
2022-11-19T00:14:13.627Z,97174.34
2022-11-19T00:16:41.066Z,97175.00
2022-11-19T00:19:07.884Z,97150.84
2022-11-19T00:21:34.407Z,97185.38
2022-11-19T00:24:00.846Z,97184.41
2022-11-19T00:26:27.397Z,97180.66
2022-11-19T00:28:54.741Z,97193.34
2022-11-19T00:31:21.180Z,97194.56
2022-11-19T00:33:49.435Z,97209.72
2022-11-19T00:36:17.038Z,97217.28
2022-11-19T00:38:43.754Z,97211.16
2022-11-19T00:41:10.988Z,97221.06
2022-11-19T00:43:50.136Z,97220.81
2022-11-19T00:46:24.842Z,97223.47
2022-11-19T00:48:53.724Z,97201.13
2022-11-19T00:51:21.826Z,97225.50
2022-11-19T00:53:48.344Z,97225.69
2022-11-19T00:56:17.559Z,97227.00
2022-11-19T00:58:44.172Z,97228.66
2022-11-19T01:01:11.632Z,97240.31
2022-11-19T01:03:39.586Z,97218.81
2022-11-19T01:06:06.587Z,97237.94
2022-11-19T01:08:32.953Z,97234.72
2022-11-19T01:11:13.672Z,97231.13
2022-11-19T01:13:40.217Z,97246.25
2022-11-19T01:16:12.708Z,97238.53
2022-11-19T01:18:40.833Z,97247.88
2022-11-19T01:21:08.766Z,97241.16
2022-11-19T01:23:35.248Z,97254.44
2022-11-19T01:26:02.261Z,97248.19
2022-11-19T01:28:28.805Z,97256.66
2022-11-19T01:30:55.380Z,97272.25
2022-11-19T01:33:22.602Z,97265.09
2022-11-19T01:36:00.494Z,97270.72
2022-11-19T01:38:27.472Z,97273.94
2022-11-19T01:40:54.826Z,97280.38
2022-11-19T01:43:38.943Z,97288.66
2022-11-19T01:46:05.398Z,97268.53
2022-11-19T01:48:34.197Z,97258.00
2022-11-19T01:51:13.530Z,97269.28
2022-11-19T01:53:40.867Z,97295.50
2022-11-19T01:56:08.962Z,97284.31
2022-11-19T01:58:39.790Z,97288.84
2022-11-19T02:01:08.137Z,97285.22
2022-11-19T02:03:35.203Z,97289.78
2022-11-19T02:06:03.209Z,97285.78
2022-11-19T02:08:36.934Z,97283.47
2022-11-19T02:11:12.757Z,97283.16
2022-11-19T02:13:46.065Z,97279.16
2022-11-19T02:16:31.559Z,97277.28
2022-11-19T02:19:17.050Z,97285.47
2022-11-19T02:22:18.142Z,97284.31
2022-11-19T02:24:54.926Z,97280.47
2022-11-19T02:27:30.318Z,97286.19
2022-11-19T02:30:34.788Z,97290.25
2022-11-19T02:33:05.913Z,97294.25
2022-11-19T02:35:40.398Z,97296.34
2022-11-19T02:38:27.630Z,97289.09
2022-11-19T02:41:23.064Z,97301.53
2022-11-19T02:44:18.074Z,97277.91
2022-11-19T02:46:48.852Z,97282.88
2022-11-19T02:49:19.297Z,97288.88
2022-11-19T02:51:47.538Z,97268.19
2022-11-19T02:54:17.382Z,97291.34
2022-11-19T02:56:55.450Z,97284.94
2022-11-19T02:59:49.525Z,97293.25
2022-11-19T03:02:35.971Z,97286.38
2022-11-19T03:05:06.334Z,97285.34
2022-11-19T03:07:33.160Z,97305.06
2022-11-19T03:10:03.253Z,97302.38
2022-11-19T03:12:49.396Z,97311.72
2022-11-19T03:15:58.081Z,97308.38
2022-11-19T03:18:43.738Z,97265.78
2022-11-19T03:21:21.408Z,97306.53
2022-11-19T03:23:57.088Z,97313.34
2022-11-19T03:26:42.231Z,97314.81
2022-11-19T03:29:12.285Z,97315.41
2022-11-19T03:31:41.657Z,97317.94
2022-11-19T03:34:14.626Z,97299.69
2022-11-19T03:36:43.541Z,97305.06
2022-11-19T03:39:13.930Z,97316.91
2022-11-19T03:41:42.256Z,97314.00
2022-11-19T03:44:18.308Z,97312.13
2022-11-19T03:46:47.482Z,97314.78
2022-11-19T03:49:15.677Z,97285.97
2022-11-19T03:51:49.875Z,97320.59
2022-11-19T03:54:16.674Z,97332.44
2022-11-19T03:56:45.553Z,97301.13
2022-11-19T03:59:13.105Z,97322.47
2022-11-19T04:01:39.986Z,97338.03
2022-11-19T04:04:25.306Z,97341.53
2022-11-19T04:06:51.736Z,97334.28
2022-11-19T04:09:18.459Z,97330.25
2022-11-19T04:14:10.935Z,97315.31
2022-11-19T04:16:37.426Z,97327.88
2022-11-19T04:19:03.820Z,97311.47
2022-11-19T04:21:30.254Z,97328.06
2022-11-19T04:23:56.825Z,97329.22
2022-11-19T04:26:23.232Z,97332.66
2022-11-19T04:28:49.626Z,97337.78
2022-11-19T04:31:17.995Z,97344.25
2022-11-19T04:33:44.696Z,97353.78
2022-11-19T04:36:11.106Z,97351.50
2022-11-19T04:38:37.460Z,97354.69
2022-11-19T04:41:04.137Z,97359.34
2022-11-19T04:43:30.539Z,97356.03
2022-11-19T04:45:57.022Z,97345.69
2022-11-19T04:48:23.422Z,97361.22
2022-11-19T04:50:49.815Z,97324.13
2022-11-19T04:53:16.242Z,97341.94
2022-11-19T04:55:42.803Z,97343.91
2022-11-19T04:58:09.299Z,97360.38
2022-11-19T05:00:35.726Z,97350.00
2022-11-19T05:03:02.184Z,97369.00
2022-11-19T05:05:28.596Z,97359.56
2022-11-19T05:07:55.122Z,97357.91
2022-11-19T05:10:21.626Z,97366.06
2022-11-19T05:12:48.033Z,97350.94
2022-11-19T05:15:14.442Z,97358.81
2022-11-19T05:17:40.865Z,97377.47
2022-11-19T05:20:08.176Z,97386.28
2022-11-19T05:22:34.692Z,97391.25
2022-11-19T05:25:01.068Z,97373.53
2022-11-19T05:27:27.474Z,97384.41
2022-11-19T05:29:53.881Z,97340.88
2022-11-19T05:32:20.350Z,97386.06
2022-11-19T05:34:46.808Z,97379.22
2022-11-19T05:37:13.178Z,97390.72
2022-11-19T05:39:39.566Z,97389.59
2022-11-19T05:42:06.064Z,97385.13
2022-11-19T05:44:32.437Z,97359.91
2022-11-19T05:46:59.818Z,97396.09
2022-11-19T05:49:26.467Z,97401.28
2022-11-19T05:51:52.868Z,97398.69
2022-11-19T05:54:19.383Z,97409.97
2022-11-19T05:56:45.955Z,97407.56
2022-11-19T05:59:12.345Z,97385.19
2022-11-19T06:01:38.734Z,97405.22
2022-11-19T06:04:05.218Z,97408.78
2022-11-19T06:06:31.620Z,97420.19
2022-11-19T06:08:58.000Z,97418.03
2022-11-19T06:11:42.914Z,97420.75
2022-11-19T06:14:09.518Z,97427.03
2022-11-19T06:16:35.936Z,97415.94
2022-11-19T06:19:02.334Z,97416.16
2022-11-19T06:21:28.762Z,97437.19
2022-11-19T06:23:55.186Z,97436.06
2022-11-19T06:26:27.171Z,97441.66
2022-11-19T06:28:54.648Z,97437.19
2022-11-19T06:31:21.625Z,97433.69
2022-11-19T06:33:48.844Z,97433.88
2022-11-19T06:36:15.352Z,97424.13
2022-11-19T06:38:42.009Z,97428.72
2022-11-19T06:41:08.416Z,97428.91
2022-11-19T06:43:34.823Z,97446.84
2022-11-19T06:46:01.199Z,97449.66
2022-11-19T06:48:27.766Z,97444.66
2022-11-19T06:50:54.186Z,97441.38
2022-11-19T06:53:20.628Z,97444.06
2022-11-19T06:55:47.095Z,97448.28
2022-11-19T06:58:14.669Z,97465.50
2022-11-19T07:00:44.095Z,97459.59
2022-11-19T07:03:10.528Z,97440.69
2022-11-19T07:05:36.901Z,97456.44
2022-11-19T07:08:05.962Z,97456.78
2022-11-19T07:10:37.540Z,97448.06
2022-11-19T07:13:03.990Z,97466.59
2022-11-19T07:15:30.362Z,97462.44
2022-11-19T07:17:58.001Z,97466.22
2022-11-19T07:20:25.554Z,97464.94
2022-11-19T07:22:57.702Z,97437.34
2022-11-19T07:25:27.095Z,97482.66
2022-11-19T07:27:53.667Z,97478.63
2022-11-19T07:30:20.232Z,97485.72
2022-11-19T07:32:46.673Z,97486.63
2022-11-19T07:35:13.126Z,97490.25
2022-11-19T07:37:39.506Z,97491.53
2022-11-19T07:40:06.464Z,97489.41
2022-11-19T07:42:50.796Z,97500.41
2022-11-19T07:45:19.459Z,97490.44
2022-11-19T07:47:46.117Z,97473.41
2022-11-19T07:50:12.997Z,97500.03
2022-11-19T07:52:39.750Z,97505.41
2022-11-19T07:55:06.866Z,97496.03
2022-11-19T07:57:33.516Z,97498.50
2022-11-19T08:00:00.006Z,97518.66
2022-11-19T08:02:26.552Z,97509.50
2022-11-19T08:04:53.069Z,97512.63
2022-11-19T08:07:19.557Z,97505.59
2022-11-19T08:09:46.032Z,97520.50
2022-11-19T08:12:12.402Z,97485.25
2022-11-19T08:14:38.775Z,97509.38
2022-11-19T08:17:23.756Z,97512.03
2022-11-19T08:19:50.175Z,97509.41
2022-11-19T08:22:16.530Z,97512.16
2022-11-19T08:24:42.915Z,97514.97
2022-11-19T08:27:09.282Z,97491.31
2022-11-19T08:29:35.716Z,97517.03
2022-11-19T08:32:02.122Z,97499.25
2022-11-19T08:34:28.737Z,97512.91
2022-11-19T08:36:55.157Z,97506.97
2022-11-19T08:39:21.651Z,97497.00
2022-11-19T08:42:06.791Z,97508.63
2022-11-19T08:44:33.174Z,97504.38
2022-11-19T08:46:59.546Z,97507.16
2022-11-19T08:49:25.975Z,97511.34
2022-11-19T08:51:52.617Z,97505.78
2022-11-19T08:54:19.427Z,97514.06
2022-11-19T08:56:46.107Z,97511.47
2022-11-19T08:59:12.529Z,97511.75
2022-11-19T09:01:39.317Z,97488.84
2022-11-19T09:04:05.782Z,97507.19
2022-11-19T09:06:35.295Z,97511.34
2022-11-19T09:09:03.308Z,97507.84
2022-11-19T09:11:29.845Z,97493.91
2022-11-19T09:13:59.061Z,97508.22
2022-11-19T09:16:25.629Z,97509.91
2022-11-19T09:18:52.463Z,97512.34
2022-11-19T09:21:19.031Z,97521.47
2022-11-19T09:23:45.402Z,97519.59
2022-11-19T09:26:17.573Z,97519.63
2022-11-19T09:28:44.733Z,97533.59
2022-11-19T09:31:14.659Z,97540.34
2022-11-19T09:33:42.432Z,97540.03
2022-11-19T09:36:10.839Z,97530.88
2022-11-19T09:38:37.559Z,97524.72
2022-11-19T09:41:25.512Z,97494.72
2022-11-19T09:44:30.417Z,97474.06
2022-11-19T09:47:29.067Z,97462.34
2022-11-19T09:50:22.376Z,97433.41
2022-11-19T09:52:56.950Z,97419.44
2022-11-19T09:55:30.511Z,97435.38
2022-11-19T09:57:58.767Z,97410.97
2022-11-19T10:00:29.117Z,97385.91
2022-11-19T10:02:57.915Z,97377.63
2022-11-19T10:05:44.792Z,97384.00
2022-11-19T10:08:41.918Z,97389.69
2022-11-19T10:11:33.076Z,97376.19
2022-11-19T10:14:21.687Z,97363.66
2022-11-19T10:17:03.313Z,97343.25
2022-11-19T10:20:08.620Z,97349.16
2022-11-19T10:22:40.962Z,97325.56
2022-11-19T10:25:21.721Z,97353.84
2022-11-19T10:27:55.161Z,97349.94
2022-11-19T10:30:25.042Z,97330.91
2022-11-19T10:33:04.053Z,97346.38
2022-11-19T10:35:36.626Z,97315.88
2022-11-19T10:38:07.425Z,97319.56
2022-11-19T10:40:42.825Z,97338.84
2022-11-19T10:43:30.421Z,97353.69
2022-11-19T10:46:00.222Z,97331.13
2022-11-19T10:48:59.202Z,97381.78
2022-11-19T10:51:33.479Z,97364.47
2022-11-19T10:54:04.964Z,97432.94
2022-11-19T10:56:39.958Z,97493.22
2022-11-19T10:59:18.609Z,97521.63
2022-11-19T11:01:48.896Z,97580.97
2022-11-19T11:04:19.637Z,97581.09
2022-11-19T11:07:03.598Z,97621.59
2022-11-19T11:09:30.021Z,97658.69
2022-11-19T11:12:31.571Z,97677.06
2022-11-19T11:15:13.694Z,97705.31
2022-11-19T11:17:42.555Z,97721.44
2022-11-19T11:20:18.275Z,97734.44
2022-11-19T11:22:48.889Z,97765.06
2022-11-19T11:25:25.255Z,97823.19
2022-11-19T11:28:05.315Z,97827.22
2022-11-19T11:30:31.898Z,97919.13
2022-11-19T11:33:17.583Z,97884.41
2022-11-19T11:35:45.667Z,97907.59
2022-11-19T11:38:13.528Z,97896.09
2022-11-19T11:40:40.049Z,97961.41
2022-11-19T11:43:06.601Z,98034.53
2022-11-19T11:45:35.699Z,98005.22
2022-11-19T11:48:19.077Z,97992.34
2022-11-19T11:50:46.468Z,98066.38
2022-11-19T11:53:16.286Z,98053.88
2022-11-19T11:55:43.605Z,98052.22
2022-11-19T11:58:32.120Z,98048.88
2022-11-19T12:01:21.092Z,98112.41
2022-11-19T12:03:55.727Z,98095.53
2022-11-19T12:06:33.021Z,98117.31
2022-11-19T12:09:18.492Z,98134.78
2022-11-19T12:12:11.045Z,98155.59
2022-11-19T12:14:53.320Z,98168.75
2022-11-19T12:17:28.848Z,98157.47
2022-11-19T12:20:26.405Z,98105.31
2022-11-19T12:23:22.959Z,98084.59
2022-11-19T12:26:15.395Z,98107.28
2022-11-19T12:29:02.196Z,98037.31
2022-11-19T12:31:50.520Z,98164.03
2022-11-19T12:34:42.171Z,98085.31
2022-11-19T12:37:23.244Z,98166.16
2022-11-19T12:39:58.641Z,98222.22
2022-11-19T12:42:41.007Z,98162.22
2022-11-19T12:45:22.838Z,98088.72
2022-11-19T12:48:10.675Z,98121.81
2022-11-19T12:50:51.543Z,98092.09
2022-11-19T12:53:45.050Z,98131.16
2022-11-19T12:56:30.481Z,98169.97
2022-11-19T12:59:05.898Z,98164.81
2022-11-19T13:01:36.788Z,98143.63
2022-11-19T13:04:18.373Z,98165.06
2022-11-19T13:06:53.561Z,98139.72
2022-11-19T13:10:18.670Z,98097.69
2022-11-19T13:12:50.206Z,98097.00
2022-11-19T13:15:26.357Z,98148.97
2022-11-19T13:17:56.420Z,98078.91
2022-11-19T13:20:28.539Z,98081.66
2022-11-19T13:22:59.673Z,98067.25
2022-11-19T13:25:31.810Z,98062.88
2022-11-19T13:28:02.561Z,98118.44
2022-11-19T13:30:32.074Z,98092.59
2022-11-19T13:33:24.784Z,98085.50
2022-11-19T13:36:07.302Z,98053.69
2022-11-19T13:38:48.720Z,98049.09
2022-11-19T13:42:04.344Z,98006.75
2022-11-19T13:44:41.443Z,97995.31
2022-11-19T13:47:15.086Z,97965.28
2022-11-19T13:50:07.639Z,97960.50
2022-11-19T13:52:39.375Z,97922.81
2022-11-19T13:55:23.093Z,97885.78
2022-11-19T13:57:49.886Z,97891.97
2022-11-19T14:00:28.595Z,97856.66
2022-11-19T14:03:20.341Z,97863.00
2022-11-19T14:06:12.387Z,97838.75
2022-11-19T14:08:46.622Z,97828.53
2022-11-19T14:11:22.096Z,97796.19
2022-11-19T14:14:32.111Z,97774.38
2022-11-19T14:17:47.434Z,97755.03
2022-11-19T14:21:07.735Z,97732.28
2022-11-19T14:24:05.695Z,97706.06
2022-11-19T14:26:40.960Z,97677.81
2022-11-19T14:29:27.280Z,97673.00
2022-11-19T14:32:18.538Z,97611.53
2022-11-19T14:35:09.625Z,97604.03
2022-11-19T14:37:45.532Z,97572.09
2022-11-19T14:40:17.831Z,97554.63
2022-11-19T14:43:18.296Z,97531.56
2022-11-19T14:46:10.857Z,97529.72
2022-11-19T14:48:40.278Z,97521.28
2022-11-19T14:51:32.729Z,97516.63
2022-11-19T14:54:31.540Z,97505.84
2022-11-19T14:57:06.014Z,97498.69
2022-11-19T14:59:34.729Z,97488.38
2022-11-19T15:02:10.485Z,97485.50
2022-11-19T15:04:41.979Z,97449.09
2022-11-19T15:07:16.141Z,97440.38
2022-11-19T15:10:04.378Z,97435.28
2022-11-19T15:12:42.974Z,97428.25
2022-11-19T15:15:41.361Z,97354.69
2022-11-19T15:18:26.562Z,97364.34
2022-11-19T15:20:56.169Z,97325.88
2022-11-19T15:23:56.045Z,97283.69
2022-11-19T15:26:37.716Z,97259.63
2022-11-19T15:29:15.270Z,97233.63
2022-11-19T15:32:23.617Z,97227.72
2022-11-19T15:35:18.346Z,97228.97
2022-11-19T15:38:18.497Z,97243.47
2022-11-19T15:40:49.507Z,97254.53
2022-11-19T15:43:22.420Z,97264.09
2022-11-19T15:46:07.421Z,97277.44
2022-11-19T15:48:56.136Z,97294.25
2022-11-19T15:51:23.325Z,97302.53
2022-11-19T15:54:00.514Z,97298.53
2022-11-19T15:56:31.970Z,97324.94
2022-11-19T15:58:59.569Z,97333.44
2022-11-19T16:01:26.270Z,97365.97
2022-11-19T16:03:53.863Z,97394.19
2022-11-19T16:06:25.166Z,97403.75
2022-11-19T16:08:54.415Z,97417.75
2022-11-19T16:11:42.284Z,97425.63
2022-11-19T16:14:38.569Z,97423.44
2022-11-19T16:17:43.027Z,97423.75
2022-11-19T16:20:09.741Z,97422.19
2022-11-19T16:23:07.999Z,97420.41
2022-11-19T16:25:37.679Z,97422.69
2022-11-19T16:28:10.123Z,97430.75
2022-11-19T16:30:50.327Z,97427.59
2022-11-19T16:33:19.072Z,97428.44
2022-11-19T16:35:51.252Z,97418.53
2022-11-19T16:38:28.650Z,97431.28
2022-11-19T16:41:14.254Z,97430.88
2022-11-19T16:43:44.685Z,97410.28
2022-11-19T16:46:18.243Z,97422.75
2022-11-19T16:48:50.850Z,97414.19
2022-11-19T16:51:38.609Z,97422.69
2022-11-19T16:54:10.629Z,97417.66
2022-11-19T16:56:43.999Z,97425.44
2022-11-19T16:59:19.763Z,97433.75
2022-11-19T17:01:52.516Z,97420.09
2022-11-19T17:04:19.682Z,97438.19
2022-11-19T17:06:47.263Z,97426.78
2022-11-19T17:09:31.022Z,97436.41
2022-11-19T17:12:15.941Z,97435.53
2022-11-19T17:15:30.448Z,97435.94
2022-11-19T17:18:15.512Z,97430.91
2022-11-19T17:20:44.814Z,97456.00
2022-11-19T17:23:16.110Z,97455.47
2022-11-19T17:25:46.476Z,97459.00
2022-11-19T17:28:19.697Z,97451.25
2022-11-19T17:30:49.442Z,97458.25
2022-11-19T17:33:17.863Z,97461.19
2022-11-19T17:35:46.549Z,97464.16
2022-11-19T17:38:27.712Z,97471.69
2022-11-19T17:40:57.143Z,97477.03
2022-11-19T17:43:44.844Z,97478.50
2022-11-19T17:46:11.364Z,97480.16
2022-11-19T17:48:40.948Z,97483.22
2022-11-19T17:51:11.470Z,97491.47
2022-11-19T17:53:37.832Z,97487.69
2022-11-19T17:56:04.767Z,97489.16
2022-11-19T17:58:31.493Z,97492.13
2022-11-19T18:00:57.869Z,97469.94
2022-11-19T18:03:24.242Z,97488.03
2022-11-19T18:05:50.761Z,97492.31
2022-11-19T18:08:17.370Z,97490.22
2022-11-19T18:10:46.368Z,97482.53
2022-11-19T18:13:16.570Z,97484.84
2022-11-19T18:15:42.977Z,97476.69
2022-11-19T18:18:09.444Z,97479.22
2022-11-19T18:20:35.899Z,97480.47
2022-11-19T18:23:02.339Z,97479.22
2022-11-19T18:25:28.758Z,97480.28
2022-11-19T18:27:55.308Z,97474.63
2022-11-19T18:30:22.114Z,97488.78
2022-11-19T18:32:48.586Z,97486.84
2022-11-19T18:35:18.560Z,97488.44
2022-11-19T18:37:45.673Z,97493.38
2022-11-19T18:40:13.776Z,97496.31
2022-11-19T18:43:00.508Z,97497.63
2022-11-19T18:45:27.576Z,97491.31
2022-11-19T18:47:54.002Z,97492.81
2022-11-19T18:50:24.351Z,97484.31
2022-11-19T18:52:53.212Z,97478.91
2022-11-19T18:55:19.601Z,97415.44
2022-11-19T18:57:46.104Z,97506.28
2022-11-19T19:00:13.333Z,97510.13
2022-11-19T19:02:39.786Z,97503.13
2022-11-19T19:05:06.600Z,97516.78
2022-11-19T19:07:33.173Z,97512.13
2022-11-19T19:09:59.623Z,97511.53
2022-11-19T19:12:28.947Z,97516.28
2022-11-19T19:14:57.076Z,97515.94
2022-11-19T19:17:26.802Z,97515.25
2022-11-19T19:19:53.860Z,97526.22
2022-11-19T19:22:20.691Z,97519.88
2022-11-19T19:24:48.343Z,97513.34
2022-11-19T19:27:18.397Z,97532.72
2022-11-19T19:29:49.193Z,97528.47
2022-11-19T19:32:17.145Z,97525.19
2022-11-19T19:34:43.522Z,97528.47
2022-11-19T19:37:09.930Z,97521.22
2022-11-19T19:39:36.375Z,97516.50
2022-11-19T19:42:02.792Z,97539.94
2022-11-19T19:44:29.230Z,97541.09
2022-11-19T19:46:55.622Z,97548.22
2022-11-19T19:49:22.529Z,97539.69
2022-11-19T19:51:49.166Z,97530.31
2022-11-19T19:54:15.925Z,97553.03
2022-11-19T19:56:42.831Z,97526.97
2022-11-19T19:59:12.352Z,97553.72
2022-11-19T20:01:38.830Z,97543.91
2022-11-19T20:04:07.031Z,97541.13
2022-11-19T20:06:35.365Z,97534.09
2022-11-19T20:09:08.219Z,97534.09
2022-11-19T20:11:48.157Z,97536.38
2022-11-19T20:14:14.605Z,97536.22
2022-11-19T20:16:41.613Z,97528.34
2022-11-19T20:19:14.049Z,97534.41
2022-11-19T20:21:40.875Z,97514.88
2022-11-19T20:24:12.104Z,97534.50
2022-11-19T20:26:39.734Z,97505.38
2022-11-19T20:29:06.999Z,97538.00
2022-11-19T20:31:34.562Z,97537.31
2022-11-19T20:34:03.520Z,97544.22
2022-11-19T20:36:31.435Z,97532.06
2022-11-19T20:38:58.795Z,97538.53
2022-11-19T20:41:45.465Z,97544.88
2022-11-19T20:44:19.966Z,97538.22
2022-11-19T20:46:54.096Z,97537.69
2022-11-19T20:49:23.834Z,97545.63
2022-11-19T20:51:51.140Z,97542.16
2022-11-19T20:54:18.977Z,97527.63
2022-11-19T20:56:45.398Z,97530.06
2022-11-19T20:59:12.668Z,97528.22
2022-11-19T21:01:39.413Z,97528.84
2022-11-19T21:04:06.150Z,97505.38
2022-11-19T21:06:33.089Z,97521.25
2022-11-19T21:08:59.593Z,97529.91
2022-11-19T21:11:26.448Z,97539.59
2022-11-19T21:13:53.001Z,97551.88
2022-11-19T21:16:21.911Z,97552.84
2022-11-19T21:18:48.403Z,97539.16
2022-11-19T21:21:17.029Z,97543.38
2022-11-19T21:23:43.643Z,97547.00
2022-11-19T21:26:19.685Z,97558.63
2022-11-19T21:28:51.883Z,97553.06
2022-11-19T21:31:20.624Z,97542.06
2022-11-19T21:33:47.075Z,97551.38
2022-11-19T21:36:13.615Z,97558.31
2022-11-19T21:38:40.551Z,97547.13
2022-11-19T21:41:07.694Z,97547.88
2022-11-19T21:43:35.181Z,97558.31
2022-11-19T21:46:01.862Z,97550.69
2022-11-19T21:48:28.452Z,97553.75
2022-11-19T21:50:54.956Z,97547.31
2022-11-19T21:53:21.878Z,97527.44
2022-11-19T21:55:49.279Z,97547.22
2022-11-19T21:58:16.106Z,97541.38
2022-11-19T22:00:43.917Z,97526.69
2022-11-19T22:03:10.568Z,97528.94
2022-11-19T22:05:36.942Z,97536.53
2022-11-19T22:08:03.456Z,97520.00
2022-11-19T22:10:29.890Z,97525.88
2022-11-19T22:12:59.477Z,97526.28
2022-11-19T22:15:27.097Z,97532.75
2022-11-19T22:17:53.579Z,97530.44
2022-11-19T22:20:20.375Z,97523.94
2022-11-19T22:22:46.999Z,97526.13
2022-11-19T22:25:14.111Z,97515.69
2022-11-19T22:27:41.704Z,97516.00
2022-11-19T22:30:10.029Z,97522.09
2022-11-19T22:32:36.565Z,97518.63
2022-11-19T22:35:03.303Z,97502.84
2022-11-19T22:37:29.713Z,97515.19
2022-11-19T22:39:56.299Z,97520.97
2022-11-19T22:42:22.664Z,97507.56
2022-11-19T22:47:25.043Z,97464.59
2022-11-19T22:49:51.985Z,97443.56
2022-11-19T22:52:18.521Z,97468.25
2022-11-19T22:54:44.954Z,97469.47
2022-11-19T22:57:11.632Z,97490.47
2022-11-19T22:59:38.126Z,97488.41
2022-11-19T23:02:04.532Z,97493.56
2022-11-19T23:04:30.948Z,97488.19
2022-11-19T23:06:57.421Z,97492.91
2022-11-19T23:09:24.088Z,97500.38
2022-11-19T23:12:09.464Z,97511.41
2022-11-19T23:14:36.072Z,97497.91
2022-11-19T23:17:02.517Z,97506.94
2022-11-19T23:19:29.052Z,97498.34
2022-11-19T23:21:55.444Z,97506.53
2022-11-19T23:24:21.890Z,97509.34
2022-11-19T23:26:48.338Z,97519.34
2022-11-19T23:29:14.861Z,97517.81
2022-11-19T23:31:41.460Z,97515.00
2022-11-19T23:34:08.370Z,97518.69
2022-11-19T23:36:42.743Z,97524.19
2022-11-19T23:39:15.173Z,97519.06
2022-11-19T23:41:41.995Z,97523.16
2022-11-19T23:44:08.882Z,97509.13
2022-11-19T23:46:36.003Z,97516.56
2022-11-19T23:49:03.743Z,97519.28
2022-11-19T23:51:40.023Z,97527.22
2022-11-19T23:54:06.647Z,97529.03
2022-11-19T23:56:36.057Z,97518.34
2022-11-19T23:59:04.794Z,97526.81
